Time;durP1;ratioP1;P1;durP2;ratioP2;P2;SDS_P1;SDS_P2;PMS_P1;PMS_P2;Temp;Humidity;BMP_temperature;BMP_pressure;BME280_temperature;BME280_humidity;BME280_pressure;Samples;Min_cycle;Max_cycle;Signal;HPM_P1;HPM_P2
2022/10/18 00:01:54;;;;;;;18.67;13.27;;;13.80;99.90;;;;;;5067809;28;20036;-64
2022/10/18 00:04:20;;;;;;;17.95;13.10;;;13.80;99.90;;;;;;5070638;28;20404;-64
2022/10/18 00:06:46;;;;;;;17.63;12.85;;;13.80;99.90;;;;;;5071038;28;20029;-64
2022/10/18 00:09:12;;;;;;;18.92;13.55;;;13.80;99.90;;;;;;5052636;28;20051;-63
2022/10/18 00:11:38;;;;;;;18.10;13.18;;;13.80;99.90;;;;;;5050814;28;20037;-64
2022/10/18 00:14:03;;;;;;;18.00;12.63;;;13.70;99.90;;;;;;5051885;28;20403;-64
2022/10/18 00:16:29;;;;;;;18.40;13.57;;;13.80;99.90;;;;;;5047739;28;20733;-63
2022/10/18 00:18:55;;;;;;;17.45;13.27;;;13.80;99.90;;;;;;5051864;28;20050;-64
2022/10/18 00:21:23;;;;;;;18.85;12.80;;;13.70;99.90;;;;;;5065026;28;20048;-63
2022/10/18 00:23:49;;;;;;;20.23;12.75;;;13.80;99.90;;;;;;5067170;28;20095;-63
2022/10/18 00:26:17;;;;;;;18.70;14.02;;;13.70;99.90;;;;;;5059526;28;20040;-64
2022/10/18 00:28:44;;;;;;;22.88;14.27;;;13.70;99.90;;;;;;5069885;28;20036;-63
2022/10/18 00:31:12;;;;;;;20.33;13.30;;;13.70;99.90;;;;;;5052779;28;20079;-63
2022/10/18 00:33:38;;;;;;;17.23;13.48;;;13.70;99.90;;;;;;5067798;28;20091;-63
2022/10/18 00:36:04;;;;;;;17.83;12.95;;;13.70;99.90;;;;;;5031005;28;20045;-63
2022/10/18 00:38:30;;;;;;;18.23;12.00;;;13.70;99.90;;;;;;5067397;28;20111;-64
2022/10/18 00:40:55;;;;;;;16.52;11.88;;;13.70;99.90;;;;;;5070574;28;20033;-64
2022/10/18 00:43:21;;;;;;;15.18;10.93;;;13.70;99.90;;;;;;5052703;28;20127;-64
2022/10/18 00:45:47;;;;;;;14.60;11.07;;;13.60;99.90;;;;;;5068737;28;20123;-63
2022/10/18 00:48:14;;;;;;;14.57;11.57;;;13.60;99.90;;;;;;5068705;28;20070;-63
2022/10/18 00:50:40;;;;;;;16.00;12.00;;;13.60;99.90;;;;;;5065659;28;20048;-63
2022/10/18 00:53:11;;;;;;;12.63;9.35;;;13.60;99.90;;;;;;5050530;28;20040;-64
2022/10/18 00:55:38;;;;;;;11.48;8.27;;;13.60;99.90;;;;;;5066223;28;20074;-63
2022/10/18 00:58:05;;;;;;;12.07;7.72;;;13.50;99.90;;;;;;5070275;28;20105;-63
2022/10/18 01:00:31;;;;;;;9.35;7.07;;;13.50;99.90;;;;;;5069770;28;20108;-63
2022/10/18 01:02:58;;;;;;;9.27;7.20;;;13.50;99.90;;;;;;5064993;28;20121;-63
2022/10/18 01:05:24;;;;;;;9.20;7.45;;;13.50;99.90;;;;;;5054960;28;20033;-64
2022/10/18 01:08:15;;;;;;;10.68;6.97;;;13.40;99.90;;;;;;5058214;28;20072;-64
2022/10/18 01:11:19;;;;;;;8.80;6.93;;;13.40;99.90;;;;;;5064252;28;20498;-64
2022/10/18 01:14:04;;;;;;;12.93;7.85;;;13.40;99.90;;;;;;5047152;28;20043;-63
2022/10/18 01:16:42;;;;;;;11.95;8.57;;;13.40;99.90;;;;;;5068109;28;20047;-64
2022/10/18 01:19:23;;;;;;;10.77;8.55;;;13.40;99.90;;;;;;5064811;28;20053;-64
2022/10/18 01:22:04;;;;;;;10.80;8.90;;;13.40;99.90;;;;;;5052032;28;20575;-64
2022/10/18 01:24:39;;;;;;;13.05;9.57;;;13.30;99.90;;;;;;5053243;28;20037;-63
2022/10/18 01:27:20;;;;;;;16.02;10.07;;;13.40;99.90;;;;;;5069436;28;20043;-64
2022/10/18 01:30:00;;;;;;;14.85;11.07;;;13.30;99.90;;;;;;5051588;28;20128;-64
2022/10/18 01:32:31;;;;;;;17.27;11.77;;;13.30;99.90;;;;;;5043487;28;20086;-64
2022/10/18 01:35:02;;;;;;;12.98;10.85;;;13.30;99.90;;;;;;5050657;28;20036;-64
2022/10/18 01:37:29;;;;;;;16.95;12.95;;;13.30;99.90;;;;;;5051158;28;20119;-64
2022/10/18 01:39:57;;;;;;;17.20;13.27;;;13.30;99.90;;;;;;5069721;28;20040;-65
2022/10/18 01:42:23;;;;;;;17.08;12.55;;;13.30;99.90;;;;;;5069356;28;20395;-64
2022/10/18 01:44:51;;;;;;;17.65;13.00;;;13.30;99.90;;;;;;5051684;28;20048;-64
2022/10/18 01:47:18;;;;;;;16.13;12.20;;;13.30;99.90;;;;;;5049972;28;20040;-64
2022/10/18 01:49:44;;;;;;;17.27;13.23;;;13.30;99.90;;;;;;5069356;28;20041;-64
2022/10/18 01:52:13;;;;;;;15.43;11.90;;;13.30;99.90;;;;;;5039938;28;20040;-64
2022/10/18 01:54:43;;;;;;;17.67;12.60;;;13.30;99.90;;;;;;5049481;28;20616;-63
2022/10/18 01:57:28;;;;;;;15.02;12.52;;;13.30;99.90;;;;;;5048690;28;20390;-64
2022/10/18 02:00:16;;;;;;;15.73;12.13;;;13.30;99.90;;;;;;5047966;28;20052;-65
2022/10/18 02:02:49;;;;;;;17.25;12.45;;;13.30;99.90;;;;;;5050924;28;20521;-64
2022/10/18 02:05:41;;;;;;;16.83;11.90;;;13.30;99.90;;;;;;5068395;28;20043;-64
2022/10/18 02:08:31;;;;;;;13.85;11.75;;;13.30;99.90;;;;;;5065983;28;20055;-65
2022/10/18 02:11:06;;;;;;;16.65;11.27;;;13.30;99.90;;;;;;5046887;28;20033;-64
2022/10/18 02:13:44;;;;;;;13.27;11.38;;;13.30;99.90;;;;;;5069222;28;20086;-64
2022/10/18 02:16:15;;;;;;;12.68;11.30;;;13.30;99.90;;;;;;5067468;28;20039;-64
2022/10/18 02:18:49;;;;;;;13.70;11.50;;;13.30;99.90;;;;;;5069007;28;20578;-64
2022/10/18 02:21:18;;;;;;;13.80;11.77;;;13.30;99.90;;;;;;5061683;28;20044;-64
2022/10/18 02:23:45;;;;;;;14.27;12.13;;;13.30;99.90;;;;;;5069325;28;20041;-64
2022/10/18 02:26:11;;;;;;;13.60;12.02;;;13.30;99.90;;;;;;5066306;28;20094;-64
2022/10/18 02:28:37;;;;;;;14.93;11.70;;;13.30;99.90;;;;;;5050229;28;20121;-64
2022/10/18 02:31:26;;;;;;;12.77;11.40;;;13.30;99.90;;;;;;5067265;28;20047;-64
2022/10/18 02:34:07;;;;;;;14.15;12.50;;;13.30;99.90;;;;;;5047454;28;20043;-64
2022/10/18 02:36:46;;;;;;;14.90;12.50;;;13.20;99.90;;;;;;5062934;28;20033;-64
2022/10/18 02:39:16;;;;;;;15.05;11.95;;;13.20;99.90;;;;;;5059861;28;20040;-64
2022/10/18 02:41:42;;;;;;;13.32;11.52;;;13.20;99.90;;;;;;5072746;28;20041;-64
2022/10/18 02:44:09;;;;;;;13.27;11.82;;;13.20;99.90;;;;;;5054810;28;20440;-64
2022/10/18 02:46:35;;;;;;;14.18;11.90;;;13.20;99.90;;;;;;5070657;28;20132;-64
2022/10/18 02:49:01;;;;;;;13.23;11.82;;;13.20;99.90;;;;;;5052197;28;20102;-65
2022/10/18 02:51:27;;;;;;;13.02;11.63;;;13.20;99.90;;;;;;5072153;28;20025;-64
2022/10/18 02:53:52;;;;;;;15.50;12.38;;;13.20;99.90;;;;;;5051797;28;20553;-64
2022/10/18 02:56:18;;;;;;;13.77;12.07;;;13.20;99.90;;;;;;5112734;22;20101;-77
2022/10/18 02:58:43;;;;;;;14.23;11.60;;;13.20;99.90;;;;;;5101227;28;20047;-77
2022/10/18 03:01:09;;;;;;;13.98;12.10;;;13.10;99.90;;;;;;5110496;28;20071;-77
2022/10/18 03:03:35;;;;;;;14.55;13.02;;;13.10;99.90;;;;;;5105949;28;20039;-77
2022/10/18 03:06:00;;;;;;;13.05;11.60;;;13.10;99.90;;;;;;5092721;28;20040;-77
2022/10/18 03:08:29;;;;;;;14.35;12.15;;;13.10;99.90;;;;;;5092226;28;20439;-77
2022/10/18 03:10:55;;;;;;;14.93;12.68;;;13.10;99.90;;;;;;5092249;28;20544;-77
2022/10/18 03:13:20;;;;;;;14.68;13.10;;;13.10;99.90;;;;;;5087666;28;20036;-77
2022/10/18 03:15:47;;;;;;;14.35;12.65;;;13.10;99.90;;;;;;5083200;28;20078;-77
2022/10/18 03:18:13;;;;;;;15.23;12.95;;;13.10;99.90;;;;;;5091873;28;20044;-77
2022/10/18 03:20:39;;;;;;;14.80;12.57;;;13.10;99.90;;;;;;5084954;28;20096;-77
2022/10/18 03:23:08;;;;;;;15.52;13.27;;;13.00;99.90;;;;;;5090776;28;20036;-77
2022/10/18 03:25:33;;;;;;;16.75;12.40;;;13.10;99.90;;;;;;5090757;28;20301;-78
2022/10/18 03:27:59;;;;;;;15.27;13.07;;;13.20;99.90;;;;;;5084673;28;20036;-78
2022/10/18 03:30:25;;;;;;;15.02;13.43;;;13.10;99.90;;;;;;5080968;28;20498;-78
2022/10/18 03:32:50;;;;;;;14.85;13.00;;;13.10;99.90;;;;;;5087117;28;20193;-78
2022/10/18 03:35:16;;;;;;;16.27;13.73;;;13.10;99.90;;;;;;5089784;28;20032;-78
2022/10/18 03:37:42;;;;;;;16.45;14.02;;;13.10;99.90;;;;;;5091187;28;20058;-77
2022/10/18 03:40:08;;;;;;;16.40;13.90;;;13.00;99.90;;;;;;5082984;28;20047;-77
2022/10/18 03:42:33;;;;;;;15.02;13.43;;;13.10;99.90;;;;;;5104597;28;20039;-77
2022/10/18 03:44:59;;;;;;;18.13;14.27;;;13.10;99.90;;;;;;5090314;28;20043;-77
2022/10/18 03:47:24;;;;;;;16.65;14.45;;;13.20;99.90;;;;;;5083320;28;20097;-77
2022/10/18 03:49:50;;;;;;;15.80;13.43;;;13.10;99.90;;;;;;5090109;28;20082;-77
2022/10/18 03:52:15;;;;;;;16.25;13.68;;;13.00;99.90;;;;;;5091011;28;20467;-77
2022/10/18 03:54:41;;;;;;;15.57;13.32;;;13.10;99.90;;;;;;5081358;28;20085;-77
2022/10/18 03:57:06;;;;;;;15.45;13.45;;;13.00;99.90;;;;;;5083708;28;20068;-78
2022/10/18 03:59:32;;;;;;;17.42;14.20;;;13.00;99.90;;;;;;5090379;28;20047;-77
2022/10/18 04:01:58;;;;;;;15.30;13.68;;;13.00;99.90;;;;;;5090408;28;20132;-77
2022/10/18 04:04:23;;;;;;;16.05;13.95;;;13.10;99.90;;;;;;5081958;28;20028;-77
2022/10/18 04:06:49;;;;;;;16.75;13.32;;;13.00;99.90;;;;;;5085618;28;20085;-77
2022/10/18 04:09:14;;;;;;;15.73;13.23;;;13.00;99.90;;;;;;5082891;28;20089;-77
2022/10/18 04:11:40;;;;;;;15.88;13.98;;;13.00;99.90;;;;;;5089976;28;20032;-77
2022/10/18 04:14:05;;;;;;;16.38;12.75;;;13.00;99.90;;;;;;5086973;28;20084;-77
2022/10/18 04:16:31;;;;;;;16.50;13.23;;;13.00;99.90;;;;;;5090555;28;20057;-79
2022/10/18 04:18:57;;;;;;;14.48;12.98;;;13.00;99.90;;;;;;5090306;28;20128;-79
2022/10/18 04:21:22;;;;;;;15.77;13.27;;;13.00;99.90;;;;;;5093626;28;20040;-79
2022/10/18 04:23:51;;;;;;;13.93;12.38;;;13.00;99.90;;;;;;5068367;28;20384;-78
2022/10/18 04:26:17;;;;;;;15.35;13.65;;;12.90;99.90;;;;;;5085686;28;20057;-78
2022/10/18 04:28:43;;;;;;;16.45;12.88;;;12.90;99.90;;;;;;5080073;28;20052;-78
2022/10/18 04:31:10;;;;;;;15.68;13.10;;;13.00;99.90;;;;;;5072117;28;20387;-78
2022/10/18 04:33:36;;;;;;;23.70;13.63;;;12.80;99.90;;;;;;5086482;28;20452;-79
2022/10/18 04:36:02;;;;;;;15.90;13.00;;;12.90;99.90;;;;;;5081834;28;20032;-78
2022/10/18 04:38:28;;;;;;;16.10;12.90;;;12.90;99.90;;;;;;5089568;28;20402;-79
2022/10/18 04:40:53;;;;;;;15.82;13.50;;;12.90;99.90;;;;;;5089818;28;20040;-77
2022/10/18 04:43:19;;;;;;;17.10;13.85;;;13.00;99.90;;;;;;5079232;28;20128;-78
2022/10/18 04:45:45;;;;;;;15.45;13.25;;;12.90;99.90;;;;;;5073298;28;20047;-78
2022/10/18 04:48:11;;;;;;;15.13;13.20;;;12.90;99.90;;;;;;5088253;28;20036;-77
2022/10/18 04:50:37;;;;;;;18.13;14.18;;;12.90;99.90;;;;;;5089527;28;20038;-78
2022/10/18 04:53:03;;;;;;;17.02;14.18;;;12.90;99.90;;;;;;5090631;28;20380;-78
2022/10/18 04:55:28;;;;;;;17.25;14.25;;;12.90;99.90;;;;;;5079292;28;20036;-78
2022/10/18 04:57:54;;;;;;;17.95;14.40;;;12.90;99.90;;;;;;5091761;28;20130;-78
2022/10/18 05:00:20;;;;;;;16.73;13.98;;;12.90;99.90;;;;;;5086376;28;20040;-78
2022/10/18 05:02:45;;;;;;;17.33;14.32;;;12.90;99.90;;;;;;5090114;28;20082;-78
2022/10/18 05:05:11;;;;;;;17.30;14.48;;;12.90;99.90;;;;;;5070015;28;20068;-79
2022/10/18 05:07:36;;;;;;;16.95;14.40;;;12.90;99.90;;;;;;5088571;28;20157;-78
2022/10/18 05:10:03;;;;;;;16.65;13.95;;;12.90;99.90;;;;;;5074642;28;20537;-78
2022/10/18 05:12:29;;;;;;;17.63;13.85;;;12.90;99.90;;;;;;5089928;28;20036;-79
2022/10/18 05:14:54;;;;;;;18.30;13.38;;;12.90;99.90;;;;;;5087114;28;20055;-77
2022/10/18 05:17:20;;;;;;;15.73;13.02;;;12.90;99.90;;;;;;5086551;28;20443;-77
2022/10/18 05:19:46;;;;;;;16.45;13.48;;;12.90;99.90;;;;;;5087807;28;20078;-77
2022/10/18 05:22:11;;;;;;;19.58;12.80;;;12.90;99.90;;;;;;5087013;28;20048;-77
2022/10/18 05:24:37;;;;;;;15.63;13.20;;;12.80;99.90;;;;;;5088456;28;20028;-77
2022/10/18 05:27:03;;;;;;;16.08;12.82;;;12.80;99.90;;;;;;5086409;28;20051;-78
2022/10/18 05:29:28;;;;;;;16.38;12.60;;;12.80;99.90;;;;;;5082445;28;20498;-78
2022/10/18 05:31:54;;;;;;;14.38;12.10;;;12.80;99.90;;;;;;5086244;28;20483;-78
2022/10/18 05:34:20;;;;;;;15.15;12.60;;;12.80;99.90;;;;;;5088284;28;20028;-78
2022/10/18 05:36:48;;;;;;;14.82;11.93;;;12.80;99.90;;;;;;5090195;28;20040;-77
2022/10/18 05:39:13;;;;;;;13.57;11.55;;;12.80;99.90;;;;;;5068443;28;20051;-77
2022/10/18 05:41:39;;;;;;;14.80;11.63;;;12.80;99.90;;;;;;5078460;28;20046;-78
2022/10/18 05:44:05;;;;;;;13.55;11.38;;;12.80;99.90;;;;;;5087387;28;20043;-76
2022/10/18 05:46:31;;;;;;;13.10;10.98;;;12.80;99.90;;;;;;5085459;28;20040;-77
2022/10/18 05:48:56;;;;;;;12.38;10.80;;;12.80;99.90;;;;;;5086349;28;20090;-78
2022/10/18 05:51:22;;;;;;;12.82;10.27;;;12.80;99.90;;;;;;5082806;28;20499;-76
2022/10/18 05:53:48;;;;;;;12.38;10.80;;;12.80;99.90;;;;;;5085492;28;20119;-76
2022/10/18 05:56:13;;;;;;;11.90;10.18;;;12.80;99.90;;;;;;5079626;28;20487;-76
2022/10/18 05:58:41;;;;;;;12.52;10.32;;;12.80;99.90;;;;;;5073893;28;20036;-75
2022/10/18 06:01:07;;;;;;;13.10;10.63;;;12.80;99.90;;;;;;5080923;28;20064;-76
2022/10/18 06:03:33;;;;;;;12.25;10.23;;;12.70;99.90;;;;;;5076120;28;20037;-76
2022/10/18 06:06:11;;;;;;;12.55;10.73;;;12.80;99.90;;;;;;5077445;28;20079;-76
2022/10/18 06:08:37;;;;;;;11.85;10.20;;;12.70;99.90;;;;;;5078340;28;20051;-76
2022/10/18 06:11:12;;;;;;;12.25;10.45;;;12.70;99.90;;;;;;5077342;28;20085;-76
2022/10/18 06:13:42;;;;;;;11.95;10.18;;;12.70;99.90;;;;;;5078219;28;20471;-76
2022/10/18 06:16:08;;;;;;;15.10;10.80;;;12.70;99.90;;;;;;5088926;28;20048;-76
2022/10/18 06:18:34;;;;;;;13.50;10.55;;;12.70;99.90;;;;;;5083910;28;20074;-76
2022/10/18 06:20:59;;;;;;;23.23;10.30;;;12.70;99.90;;;;;;5087109;28;20071;-76
2022/10/18 06:23:29;;;;;;;11.70;9.70;;;12.60;99.90;;;;;;5082431;28;20039;-75
2022/10/18 06:26:03;;;;;;;12.27;9.60;;;12.60;99.90;;;;;;5086208;28;20043;-75
2022/10/18 06:28:29;;;;;;;12.10;9.93;;;12.60;99.90;;;;;;5084151;28;20491;-76
2022/10/18 06:30:56;;;;;;;14.15;10.45;;;12.60;99.90;;;;;;5077691;28;20037;-76
2022/10/18 06:33:22;;;;;;;15.20;10.27;;;12.60;99.90;;;;;;5083342;28;20043;-76
2022/10/18 06:35:59;;;;;;;11.98;10.00;;;12.60;99.90;;;;;;5088641;28;20040;-76
2022/10/18 06:38:25;;;;;;;12.57;9.63;;;12.70;99.90;;;;;;5092382;28;20047;-75
2022/10/18 06:40:51;;;;;;;11.38;8.85;;;12.60;99.90;;;;;;5091437;28;20474;-74
2022/10/18 06:43:17;;;;;;;12.75;9.38;;;12.60;99.90;;;;;;5095215;28;20411;-75
2022/10/18 06:45:42;;;;;;;12.15;9.85;;;12.60;99.90;;;;;;5090304;28;20042;-75
2022/10/18 06:48:08;;;;;;;12.23;10.27;;;12.50;99.90;;;;;;5113122;27;20047;-76
2022/10/18 06:50:33;;;;;;;10.88;9.27;;;12.50;99.90;;;;;;5084427;28;20058;-75
2022/10/18 06:53:00;;;;;;;11.57;9.75;;;12.50;99.90;;;;;;5089271;28;20047;-75
2022/10/18 06:55:25;;;;;;;12.07;9.27;;;12.60;99.90;;;;;;5098345;28;20505;-75
2022/10/18 06:57:52;;;;;;;11.90;10.07;;;12.50;99.90;;;;;;5078288;28;20043;-75
2022/10/18 07:00:18;;;;;;;12.15;9.68;;;12.50;99.90;;;;;;5089724;28;20197;-75
2022/10/18 07:02:43;;;;;;;24.98;8.68;;;12.50;99.90;;;;;;5087327;28;20043;-75
2022/10/18 07:05:10;;;;;;;10.73;8.57;;;12.60;99.90;;;;;;5096721;28;20045;-75
2022/10/18 07:07:36;;;;;;;9.77;8.27;;;12.50;99.90;;;;;;5098852;28;20119;-75
2022/10/18 07:10:03;;;;;;;10.55;8.00;;;12.50;99.90;;;;;;5087573;28;20036;-75
2022/10/18 07:12:31;;;;;;;10.23;8.00;;;12.50;99.90;;;;;;5100299;28;20059;-75
2022/10/18 07:14:57;;;;;;;10.63;7.88;;;12.50;99.90;;;;;;5105837;28;20040;-76
2022/10/18 07:17:23;;;;;;;25.92;8.02;;;12.50;99.90;;;;;;5094731;28;20475;-76
2022/10/18 07:19:48;;;;;;;9.60;7.68;;;12.50;99.90;;;;;;5086719;28;20048;-76
2022/10/18 07:22:14;;;;;;;9.93;8.05;;;12.50;99.90;;;;;;5080427;28;20051;-76
2022/10/18 07:24:40;;;;;;;11.15;8.18;;;12.60;99.90;;;;;;5087493;28;20025;-76
2022/10/18 07:27:05;;;;;;;9.23;8.07;;;12.50;99.90;;;;;;5083186;28;20123;-76
2022/10/18 07:29:31;;;;;;;9.20;8.10;;;12.50;99.90;;;;;;5080852;28;20075;-76
2022/10/18 07:31:56;;;;;;;9.65;8.27;;;12.60;99.90;;;;;;5079186;28;20047;-75
2022/10/18 07:34:22;;;;;;;10.77;9.15;;;12.60;99.90;;;;;;5082258;28;20520;-75
2022/10/18 07:36:48;;;;;;;10.32;8.57;;;12.60;99.90;;;;;;5080861;28;20036;-76
2022/10/18 07:39:13;;;;;;;10.65;8.82;;;12.70;99.90;;;;;;5080042;28;20051;-76
2022/10/18 07:41:39;;;;;;;13.80;9.63;;;12.70;99.90;;;;;;5077201;28;20037;-76
2022/10/18 07:44:05;;;;;;;14.75;8.98;;;12.60;99.90;;;;;;5079095;28;20048;-76
2022/10/18 07:46:31;;;;;;;12.27;9.07;;;12.70;99.90;;;;;;5080764;28;20519;-76
2022/10/18 07:48:58;;;;;;;12.38;8.57;;;12.70;99.90;;;;;;5083078;28;20395;-76
2022/10/18 07:51:24;;;;;;;10.13;8.30;;;12.60;99.90;;;;;;5085681;28;20395;-76
2022/10/18 07:53:50;;;;;;;10.52;7.63;;;12.70;99.90;;;;;;5069109;28;20113;-76
2022/10/18 07:56:19;;;;;;;18.58;8.13;;;12.70;99.90;;;;;;5084512;28;20485;-76
2022/10/18 07:58:47;;;;;;;12.85;7.70;;;12.70;99.90;;;;;;5081139;28;20036;-76
2022/10/18 08:01:14;;;;;;;10.35;7.80;;;12.80;99.90;;;;;;5081269;28;20098;-76
2022/10/18 08:03:40;;;;;;;12.20;7.93;;;12.70;99.90;;;;;;5077287;28;20673;-76
2022/10/18 08:06:08;;;;;;;9.55;7.95;;;12.60;99.90;;;;;;5080984;28;20047;-76
2022/10/18 08:08:35;;;;;;;14.55;8.20;;;12.70;99.90;;;;;;5080079;28;20039;-76
2022/10/18 08:11:13;;;;;;;13.02;9.25;;;12.80;99.90;;;;;;5082876;28;20498;-77
2022/10/18 08:13:39;;;;;;;13.25;9.65;;;12.80;99.90;;;;;;5079711;28;20028;-76
2022/10/18 08:16:07;;;;;;;14.57;9.85;;;12.80;99.90;;;;;;5101636;28;20616;-76
2022/10/18 08:18:33;;;;;;;35.42;10.40;;;12.80;99.90;;;;;;5081901;28;20040;-76
2022/10/18 08:21:00;;;;;;;18.00;10.07;;;12.80;99.90;;;;;;5081681;28;20072;-77
2022/10/18 08:23:26;;;;;;;13.00;9.65;;;12.70;99.90;;;;;;5081077;28;20032;-76
2022/10/18 08:25:52;;;;;;;14.65;9.90;;;12.70;99.90;;;;;;5097584;28;20028;-76
2022/10/18 08:28:17;;;;;;;11.00;8.98;;;12.80;99.90;;;;;;5081330;28;20113;-78
2022/10/18 08:30:43;;;;;;;12.27;9.27;;;12.90;99.90;;;;;;5080734;28;20048;-76
2022/10/18 08:33:09;;;;;;;12.27;8.65;;;12.90;99.90;;;;;;5081102;28;20036;-76
2022/10/18 08:35:34;;;;;;;12.27;8.18;;;12.90;99.90;;;;;;5076501;28;20028;-76
2022/10/18 08:38:00;;;;;;;11.43;8.27;;;12.90;99.90;;;;;;5073834;28;20093;-76
2022/10/18 08:40:26;;;;;;;11.57;8.30;;;13.00;99.90;;;;;;5072196;28;20089;-76
2022/10/18 08:43:20;;;;;;;10.30;7.68;;;13.00;99.90;;;;;;5070669;28;20071;-76
2022/10/18 08:45:45;;;;;;;24.17;9.55;;;13.00;99.90;;;;;;5074348;28;20076;-76
2022/10/18 08:48:44;;;;;;;11.57;8.73;;;13.00;99.90;;;;;;5077084;28;20674;-76
2022/10/18 08:51:48;;;;;;;10.88;8.20;;;13.10;99.90;;;;;;5072488;28;20408;-76
2022/10/18 08:54:36;;;;;;;11.55;8.80;;;13.10;99.90;;;;;;5072473;28;20044;-76
2022/10/18 08:57:09;;;;;;;13.02;8.77;;;13.30;99.90;;;;;;5090677;28;20086;-77
2022/10/18 08:59:40;;;;;;;11.43;8.85;;;13.20;99.90;;;;;;5073649;28;20056;-77
2022/10/18 09:02:16;;;;;;;13.27;9.25;;;13.30;99.90;;;;;;5073072;28;20151;-76
2022/10/18 09:05:23;;;;;;;12.15;9.20;;;13.30;99.90;;;;;;5073125;28;20107;-76
2022/10/18 09:08:10;;;;;;;18.35;10.10;;;13.30;99.90;;;;;;5054681;28;20059;-76
2022/10/18 09:10:50;;;;;;;18.38;11.27;;;13.30;99.90;;;;;;5078225;28;20127;-76
2022/10/18 09:13:45;;;;;;;14.40;10.65;;;13.30;99.90;;;;;;5074420;28;20086;-76
2022/10/18 09:16:16;;;;;;;17.63;11.07;;;13.30;99.90;;;;;;5076728;28;20078;-76
2022/10/18 09:19:25;;;;;;;16.58;11.70;;;13.30;99.90;;;;;;5077194;28;20051;-76
2022/10/18 09:22:00;;;;;;;20.08;12.57;;;13.40;99.90;;;;;;5071009;28;20115;-76
2022/10/18 09:24:39;;;;;;;20.05;12.30;;;13.30;99.90;;;;;;5076806;28;20076;-76
2022/10/18 09:27:15;;;;;;;19.98;12.95;;;13.50;99.90;;;;;;5073414;28;20040;-76
2022/10/18 09:30:02;;;;;;;17.95;12.95;;;13.50;99.90;;;;;;5088135;28;20045;-77
2022/10/18 09:32:53;;;;;;;19.08;13.43;;;13.50;99.90;;;;;;5088894;28;20126;-77
2022/10/18 09:36:07;;;;;;;21.83;13.00;;;13.40;99.90;;;;;;5071515;28;20086;-77
2022/10/18 09:38:42;;;;;;;21.38;14.23;;;13.40;99.90;;;;;;5068589;28;20083;-77
2022/10/18 09:41:14;;;;;;;23.38;14.30;;;13.40;99.90;;;;;;5065854;28;20036;-77
2022/10/18 09:43:59;;;;;;;23.67;13.32;;;13.40;99.90;;;;;;5082491;28;20500;-77
2022/10/18 09:46:35;;;;;;;22.95;14.00;;;13.50;99.90;;;;;;5081271;28;20040;-77
2022/10/18 09:49:12;;;;;;;21.17;12.13;;;13.50;99.90;;;;;;5086331;28;20071;-77
2022/10/18 09:51:41;;;;;;;23.55;12.52;;;13.50;99.90;;;;;;5081002;28;20048;-77
2022/10/18 09:54:48;;;;;;;19.48;12.18;;;13.50;99.90;;;;;;5079580;28;20422;-77
2022/10/18 09:57:31;;;;;;;22.02;11.50;;;13.60;99.90;;;;;;5080646;28;20044;-77
2022/10/18 09:59:58;;;;;;;17.45;10.60;;;13.60;99.90;;;;;;5088252;28;20120;-77
2022/10/18 10:02:24;;;;;;;22.30;10.68;;;13.70;99.90;;;;;;5085907;28;20123;-77
2022/10/18 10:04:50;;;;;;;14.23;8.48;;;13.60;99.90;;;;;;5105491;28;20466;-76
2022/10/18 10:07:25;;;;;;;11.23;6.40;;;13.70;99.90;;;;;;5092802;28;20044;-76
2022/10/18 10:10:07;;;;;;;20.80;6.07;;;13.80;99.90;;;;;;5088604;28;20036;-76
2022/10/18 10:12:38;;;;;;;11.77;4.20;;;13.80;99.90;;;;;;5084330;28;20484;-76
2022/10/18 10:15:21;;;;;;;12.05;4.72;;;13.90;99.90;;;;;;5091035;28;20051;-76
2022/10/18 10:18:00;;;;;;;15.35;4.65;;;14.00;99.90;;;;;;5082196;28;20373;-77
2022/10/18 10:20:34;;;;;;;14.10;4.65;;;14.00;99.90;;;;;;5068161;28;20043;-77
2022/10/18 10:23:19;;;;;;;13.57;5.30;;;14.10;99.90;;;;;;5088833;28;20048;-77
2022/10/18 10:25:51;;;;;;;15.98;5.93;;;14.20;99.90;;;;;;5084624;28;20071;-77
2022/10/18 10:28:20;;;;;;;15.48;6.38;;;14.30;99.90;;;;;;5092706;28;20068;-77
2022/10/18 10:30:46;;;;;;;16.38;5.13;;;14.50;99.90;;;;;;5093839;28;20039;-77
2022/10/18 10:33:33;;;;;;;15.10;4.90;;;14.60;99.90;;;;;;5094877;28;20036;-77
2022/10/18 10:36:00;;;;;;;14.30;3.78;;;14.70;99.90;;;;;;5090576;28;20080;-77
2022/10/18 10:38:29;;;;;;;14.90;3.65;;;14.80;99.90;;;;;;5092498;28;20081;-77
2022/10/18 10:40:55;;;;;;;18.80;3.03;;;14.80;99.90;;;;;;5091974;28;20048;-77
2022/10/18 10:43:26;;;;;;;11.20;3.08;;;14.90;99.90;;;;;;5093778;28;20036;-77
2022/10/18 10:45:57;;;;;;;18.75;3.38;;;15.10;99.90;;;;;;5089535;28;20427;-77
2022/10/18 10:48:24;;;;;;;13.13;2.85;;;15.20;99.90;;;;;;5092392;28;20119;-77
2022/10/18 10:51:04;;;;;;;12.52;2.15;;;15.40;99.90;;;;;;5091871;28;20537;-78
2022/10/18 10:53:33;;;;;;;14.05;2.22;;;15.50;99.90;;;;;;5105130;28;20032;-77
2022/10/18 10:55:59;;;;;;;22.92;3.28;;;15.60;99.90;;;;;;5088229;28;20041;-78
2022/10/18 10:58:27;;;;;;;21.83;2.55;;;15.70;99.90;;;;;;5082203;28;20123;-77
2022/10/18 11:00:56;;;;;;;12.27;2.63;;;15.70;99.90;;;;;;5088713;28;20455;-77
2022/10/18 11:03:22;;;;;;;10.70;2.20;;;15.70;99.90;;;;;;5087780;28;20036;-77
2022/10/18 11:05:54;;;;;;;9.85;1.90;;;15.80;99.90;;;;;;5089694;28;20534;-77
2022/10/18 11:08:26;;;;;;;11.18;2.55;;;15.80;99.90;;;;;;5088817;28;20394;-76
2022/10/18 11:11:29;;;;;;;9.10;2.45;;;15.90;99.90;;;;;;5091750;28;20055;-77
2022/10/18 11:14:03;;;;;;;9.60;1.90;;;16.00;99.90;;;;;;5058485;28;20048;-77
2022/10/18 11:16:37;;;;;;;10.27;2.70;;;16.00;99.90;;;;;;5082911;28;20079;-77
2022/10/18 11:19:19;;;;;;;12.70;2.08;;;16.10;99.90;;;;;;5082827;28;20083;-76
2022/10/18 11:21:45;;;;;;;7.47;1.90;;;16.10;99.90;;;;;;5079857;28;20072;-77
2022/10/18 11:24:15;;;;;;;11.65;2.45;;;16.10;99.90;;;;;;5087845;28;20040;-77
2022/10/18 11:27:12;;;;;;;18.48;2.40;;;16.20;99.90;;;;;;5083640;28;20407;-77
2022/10/18 11:29:38;;;;;;;10.13;1.90;;;16.10;99.90;;;;;;5070780;28;20051;-77
2022/10/18 11:32:20;;;;;;;8.63;1.65;;;16.30;99.90;;;;;;5081938;28;20036;-77
2022/10/18 11:34:45;;;;;;;;;;;16.30;99.90;;;;;;5080089;28;20040;-77
2022/10/18 11:37:36;;;;;;;6.88;1.48;;;16.30;99.90;;;;;;5081237;28;20299;-77
2022/10/18 11:40:35;;;;;;;9.05;1.98;;;16.40;99.90;;;;;;5093699;28;20075;-77
2022/10/18 11:43:04;;;;;;;11.32;2.20;;;16.50;99.90;;;;;;5090078;28;20050;-77
2022/10/18 11:45:38;;;;;;;12.35;2.00;;;16.60;99.90;;;;;;5089841;28;20087;-77
2022/10/18 11:48:34;;;;;;;12.32;2.00;;;16.60;99.90;;;;;;5097748;28;20061;-77
2022/10/18 11:51:12;;;;;;;12.93;2.33;;;16.60;99.90;;;;;;5095054;28;20044;-76
2022/10/18 11:54:03;;;;;;;11.40;2.20;;;16.60;99.90;;;;;;5094278;28;20044;-77
2022/10/18 11:56:43;;;;;;;8.13;1.60;;;16.60;99.90;;;;;;5086976;28;20071;-77
2022/10/18 11:59:49;;;;;;;11.88;1.83;;;16.70;99.90;;;;;;5082563;28;20044;-77
2022/10/18 12:02:37;;;;;;;7.85;1.58;;;16.70;99.90;;;;;;5077337;28;20097;-77
2022/10/18 12:05:05;;;;;;;11.50;2.25;;;16.60;99.90;;;;;;5096811;28;20043;-77
2022/10/18 12:07:37;;;;;;;10.63;2.00;;;16.60;99.90;;;;;;5086432;28;20043;-77
2022/10/18 12:10:07;;;;;;;10.63;1.63;;;16.60;99.90;;;;;;5086790;28;20040;-77
2022/10/18 12:12:49;;;;;;;13.02;1.65;;;16.60;99.90;;;;;;5088696;28;20043;-77
2022/10/18 12:15:21;;;;;;;12.18;2.25;;;16.60;99.90;;;;;;5091964;28;20036;-77
2022/10/18 12:17:52;;;;;;;7.63;1.88;;;16.70;99.90;;;;;;5093160;28;20047;-77
2022/10/18 12:20:31;;;;;;;10.45;2.40;;;16.70;99.90;;;;;;5091380;28;20075;-77
2022/10/18 12:23:13;;;;;;;11.63;2.30;;;16.80;99.90;;;;;;5079242;28;20135;-77
2022/10/18 12:25:44;;;;;;;10.93;2.03;;;16.70;99.90;;;;;;5091834;28;20110;-77
2022/10/18 12:28:23;;;;;;;8.90;1.70;;;16.70;99.90;;;;;;5090846;28;20039;-77
2022/10/18 12:31:13;;;;;;;9.05;1.75;;;16.70;99.90;;;;;;5094333;28;20386;-77
2022/10/18 12:33:45;;;;;;;16.90;2.45;;;16.80;99.90;;;;;;5100885;28;20520;-77
2022/10/18 12:36:20;;;;;;;11.38;1.80;;;17.00;99.90;;;;;;5087065;28;20069;-77
2022/10/18 12:38:53;;;;;;;11.13;2.28;;;17.00;99.90;;;;;;5110355;27;20052;-77
2022/10/18 12:41:23;;;;;;;11.27;1.73;;;17.10;99.90;;;;;;5096020;28;20040;-77
2022/10/18 12:43:57;;;;;;;9.23;1.73;;;17.10;99.90;;;;;;5086153;28;20093;-77
2022/10/18 12:46:23;;;;;;;11.20;2.42;;;16.90;99.90;;;;;;5091155;28;20431;-77
2022/10/18 12:49:04;;;;;;;7.68;1.52;;;16.80;99.90;;;;;;5091467;28;20036;-77
2022/10/18 12:51:30;;;;;;;8.18;1.70;;;16.70;99.90;;;;;;5104521;28;20033;-76
2022/10/18 12:54:08;;;;;;;7.15;1.60;;;16.70;99.90;;;;;;5084188;28;20032;-77